Neiafu, Tonga

1:28 AM TOT on August 28, 2014 (GMT +1300)
Vava'u | Change Station
CLOSE
Current Station
Airport
Location: Vavau,
Elevation: 233 ft
Nearby Weather Stations

Elev 233 ft 18.59 °S, 173.96 °W | Updated 28 minutes ago

Mostly Cloudy
Mostly Cloudy
70 °F
Feels Like 70 °F
N
12
Wind Variable Wind from SE

Today
High -- | Low -- °F
--% Chance of Precip.
Yesterday
High -- | Low -- °F
Precip. -- in
6:46 AM 6:27 PM
Waxing Crescent, 3% visible
Pressure 30.06 in
Visibility 6.2 miles
Clouds Few 1600 ft
Mostly Cloudy 4000 ft
Dew Point 61 °F
Humidity 73%
Rainfall 0.00 in
Snow Depth Not available.
UV 0 out of 12
Pollen Not available.
Air Quality Not available.
Flu Activity Not available.
METAR NFTV 271200Z 13010KT 9999 FEW016 BKN040 21/16 Q1018

More Conditions Fewer Conditions

Pressure 30.06 in
Visibility 6.2 miles
Clouds Few 1600 ft
Mostly Cloudy 4000 ft
Dew Point 61 °F
Humidity 73%
Rainfall 0.00 in
Snow Depth Not available.
UV 0 out of 12
Pollen Not available.
Air Quality Not available.
Flu Activity Not available.
METAR NFTV 271200Z 13010KT 9999 FEW016 BKN040 21/16 Q1018

More Conditions Fewer Conditions

10-Day Weather Forecast

Almanac

Astronomy

Aug. 28, 2014 Rise Set
Actual Time 6:46 AM TOT 6:27 PM TOT
Civil Twilight 6:24 AM TOT 6:49 PM TOT
Nautical Twilight 5:58 AM TOT 7:15 PM TOT
Astronomical Twilight 5:33 AM TOT 7:40 PM TOT
Moon 8:02 AM TOT (8/28) 8:29 PM TOT (8/28)
Length of Visible Light 12h 25m
Length of Day
11h 41m
Tomorrow will be 0m 59s longer.
Waxing Crescent, 3% of the Moon is Illuminated
Aug 27
Waxing Crescent
Sep 2
First Quarter
Sep 8
Full
Sep 15
Last Quarter
Sep 24
New

Yesterday's Extremes

Country Highs Country Lows

Community

WunderPhotos

Upload Photos

1,747,675 photos uploaded!

Nearby

Snow Depth

Not available.

Earthquake Activity

City Distance Mag. Time & Date
No recent earthquake activity has been reported nearby.
Minimum magnitude displayed is 2.5.

Coastal Water Temperatures

Place Temperature
No Stations Reporting

Nearby Weather Stations